createdAt,value
2022-11-16T00:02:12.404Z,68.78
2022-11-16T00:04:40.644Z,61.88
2022-11-16T00:07:11.203Z,66.72
2022-11-16T00:09:39.342Z,66.90
2022-11-16T00:12:11.022Z,63.72
2022-11-16T00:14:39.017Z,61.67
2022-11-16T00:17:07.447Z,74.15
2022-11-16T00:19:35.506Z,67.38
2022-11-16T00:22:03.514Z,76.85
2022-11-16T00:24:33.092Z,78.00
2022-11-16T00:27:01.127Z,85.40
2022-11-16T00:29:29.257Z,73.63
2022-11-16T00:31:57.348Z,68.93
2022-11-16T00:34:26.110Z,71.80
2022-11-16T00:36:54.187Z,83.65
2022-11-16T00:39:22.345Z,80.32
2022-11-16T00:41:51.839Z,86.90
2022-11-16T00:44:19.958Z,86.03
2022-11-16T00:46:48.059Z,79.35
2022-11-16T00:49:16.351Z,93.38
2022-11-16T00:51:44.378Z,79.07
2022-11-16T00:54:12.471Z,76.57
2022-11-16T00:56:40.505Z,72.85
2022-11-16T00:59:09.924Z,112.82
2022-11-16T01:01:38.213Z,80.68
2022-11-16T01:04:06.479Z,78.35
2022-11-16T01:06:34.598Z,86.10
2022-11-16T01:09:02.982Z,110.07
2022-11-16T01:11:48.375Z,105.63
2022-11-16T01:16:45.945Z,172.52
2022-11-16T01:19:14.172Z,110.57
2022-11-16T01:21:42.176Z,105.72
2022-11-16T01:24:10.475Z,152.68
2022-11-16T01:26:38.532Z,86.80
2022-11-16T01:29:06.616Z,89.55
2022-11-16T01:31:36.075Z,86.70
2022-11-16T01:34:04.293Z,134.27
2022-11-16T01:36:32.286Z,98.32
2022-11-16T01:39:00.317Z,108.75
2022-11-16T01:41:28.480Z,194.15
2022-11-16T01:43:59.267Z,162.13
2022-11-16T01:46:28.459Z,162.85
2022-11-16T01:49:03.159Z,199.13
2022-11-16T01:51:32.549Z,225.68
2022-11-16T01:54:02.693Z,221.45
2022-11-16T01:56:34.167Z,182.60
2022-11-16T01:59:02.256Z,173.45
2022-11-16T02:01:30.396Z,224.95
2022-11-16T02:04:00.011Z,163.15
2022-11-16T02:06:43.304Z,136.45
2022-11-16T02:09:53.385Z,208.88
2022-11-16T02:12:50.213Z,284.63
2022-11-16T02:15:25.980Z,290.48
2022-11-16T02:18:05.226Z,201.93
2022-11-16T02:20:47.260Z,284.08
2022-11-16T02:23:52.775Z,288.50
2022-11-16T02:26:40.732Z,124.70
2022-11-16T02:29:22.074Z,115.45
2022-11-16T02:31:55.541Z,94.07
2022-11-16T02:34:25.498Z,95.53
2022-11-16T02:36:56.850Z,148.63
2022-11-16T02:39:29.438Z,133.57
2022-11-16T02:42:00.804Z,161.45
2022-11-16T02:44:34.394Z,234.50
2022-11-16T02:47:06.303Z,130.93
2022-11-16T02:49:38.097Z,138.63
2022-11-16T02:52:06.597Z,266.23
2022-11-16T02:54:34.653Z,182.65
2022-11-16T02:57:30.165Z,169.35
2022-11-16T03:00:01.796Z,180.55
2022-11-16T03:02:37.097Z,142.75
2022-11-16T03:05:10.783Z,95.10
2022-11-16T03:07:45.804Z,195.65
2022-11-16T03:13:03.669Z,118.78
2022-11-16T03:15:37.586Z,133.50
2022-11-16T03:18:08.485Z,101.20
2022-11-16T03:20:40.004Z,136.48
2022-11-16T03:23:11.465Z,84.25
2022-11-16T03:25:45.269Z,70.32
2022-11-16T03:28:18.657Z,91.57
2022-11-16T03:30:52.771Z,85.57
2022-11-16T03:33:25.244Z,72.73
2022-11-16T03:36:00.410Z,94.68
2022-11-16T03:38:29.758Z,98.50
2022-11-16T03:41:01.116Z,109.07
2022-11-16T03:43:29.492Z,94.28
2022-11-16T03:45:59.146Z,84.45
2022-11-16T03:48:27.413Z,91.88
2022-11-16T03:50:55.423Z,72.95
2022-11-16T03:53:23.501Z,81.70
2022-11-16T03:55:51.476Z,91.18
2022-11-16T03:58:19.693Z,79.07
2022-11-16T04:00:47.838Z,75.88
2022-11-16T04:03:17.361Z,90.15
2022-11-16T04:06:03.040Z,112.10
2022-11-16T04:08:48.546Z,116.07
2022-11-16T04:11:37.950Z,91.97
2022-11-16T04:14:23.744Z,105.70
2022-11-16T04:17:09.153Z,87.93
2022-11-16T04:23:01.018Z,95.90
2022-11-16T04:25:33.521Z,87.90
2022-11-16T04:28:16.555Z,70.85
2022-11-16T04:31:04.454Z,66.82
2022-11-16T04:33:50.525Z,82.60
2022-11-16T04:36:48.981Z,68.35
2022-11-16T04:39:17.028Z,108.43
2022-11-16T04:42:02.431Z,160.23
2022-11-16T04:47:17.524Z,160.60
2022-11-16T04:49:45.584Z,81.00
2022-11-16T04:52:15.016Z,80.25
2022-11-16T04:54:43.067Z,102.47
2022-11-16T04:57:11.088Z,95.72
2022-11-16T04:59:39.077Z,91.93
2022-11-16T05:02:10.003Z,82.57
2022-11-16T05:04:38.789Z,70.70
2022-11-16T05:07:10.978Z,72.00
2022-11-16T05:09:43.119Z,63.03
2022-11-16T05:12:12.001Z,72.85
2022-11-16T05:14:39.983Z,93.93
2022-11-16T05:17:08.141Z,109.95
2022-11-16T05:19:53.833Z,78.18
2022-11-16T05:22:22.042Z,73.50
2022-11-16T05:24:51.544Z,99.97
2022-11-16T05:27:21.270Z,88.57
2022-11-16T05:29:50.192Z,77.65
2022-11-16T05:32:19.289Z,80.07
2022-11-16T05:34:49.448Z,70.22
2022-11-16T05:37:18.323Z,75.95
2022-11-16T05:39:46.469Z,74.97
2022-11-16T05:42:15.936Z,72.45
2022-11-16T05:44:44.011Z,101.85
2022-11-16T05:47:12.031Z,86.47
2022-11-16T05:49:40.152Z,75.47
2022-11-16T05:52:08.210Z,155.32
2022-11-16T05:54:36.323Z,93.50
2022-11-16T05:57:04.668Z,61.83
2022-11-16T05:59:34.125Z,71.00
2022-11-16T06:02:04.034Z,63.33
2022-11-16T06:04:32.119Z,62.17
2022-11-16T06:07:00.196Z,57.38
2022-11-16T06:09:28.319Z,57.50
2022-11-16T06:11:56.393Z,57.97
2022-11-16T06:14:24.662Z,55.30
2022-11-16T06:16:54.079Z,54.92
2022-11-16T06:19:22.245Z,55.33
2022-11-16T06:21:50.253Z,57.75
2022-11-16T06:24:18.550Z,54.58
2022-11-16T06:26:47.244Z,59.90
2022-11-16T06:29:15.339Z,54.05
2022-11-16T06:31:43.379Z,43.05
2022-11-16T06:34:12.745Z,45.85
2022-11-16T06:36:40.759Z,53.47
2022-11-16T06:39:08.863Z,53.25
2022-11-16T06:41:41.217Z,47.72
2022-11-16T06:44:09.749Z,46.55
2022-11-16T06:46:37.766Z,53.88
2022-11-16T06:49:05.892Z,48.20
2022-11-16T06:51:35.307Z,54.22
2022-11-16T06:54:03.404Z,50.40
2022-11-16T06:56:31.436Z,50.58
2022-11-16T06:58:59.419Z,50.58
2022-11-16T07:01:27.778Z,59.08
2022-11-16T07:03:55.842Z,59.38
2022-11-16T07:06:23.915Z,54.47
2022-11-16T07:08:53.474Z,72.82
2022-11-16T07:11:21.519Z,71.35
2022-11-16T07:13:49.623Z,70.32
2022-11-16T07:16:17.749Z,68.43
2022-11-16T07:18:45.758Z,61.65
2022-11-16T07:21:15.781Z,68.50
2022-11-16T07:23:44.183Z,83.07
2022-11-16T07:26:13.672Z,61.08
2022-11-16T07:28:47.767Z,64.15
2022-11-16T07:31:16.749Z,57.30
2022-11-16T07:33:44.814Z,66.70
2022-11-16T07:36:14.930Z,71.88
2022-11-16T07:38:43.144Z,70.25
2022-11-16T07:41:14.470Z,74.38
2022-11-16T07:43:44.374Z,73.15
2022-11-16T07:49:09.816Z,65.68
2022-11-16T07:51:39.406Z,84.85
2022-11-16T07:54:07.508Z,63.90
2022-11-16T07:56:38.161Z,76.90
2022-11-16T07:59:06.754Z,69.72
2022-11-16T08:01:35.150Z,67.82
2022-11-16T08:04:03.306Z,66.80
2022-11-16T08:06:32.971Z,72.22
2022-11-16T08:09:00.982Z,84.90
2022-11-16T08:11:29.075Z,67.68
2022-11-16T08:13:58.496Z,62.88
2022-11-16T08:16:26.502Z,69.10
2022-11-16T08:18:54.584Z,70.55
2022-11-16T08:21:22.654Z,58.95
2022-11-16T08:23:55.211Z,64.28
2022-11-16T08:26:26.092Z,54.58
2022-11-16T08:28:56.585Z,49.67
2022-11-16T08:31:28.089Z,46.25
2022-11-16T08:33:56.672Z,43.10
2022-11-16T08:36:24.936Z,46.38
2022-11-16T08:38:53.956Z,46.75
2022-11-16T08:41:22.536Z,45.38
2022-11-16T08:43:53.431Z,43.85
2022-11-16T08:46:22.084Z,45.10
2022-11-16T08:48:55.657Z,45.15
2022-11-16T08:51:24.185Z,40.92
2022-11-16T08:53:57.006Z,38.60
2022-11-16T08:56:26.323Z,38.50
2022-11-16T08:58:58.381Z,39.53
2022-11-16T09:01:29.448Z,41.35
2022-11-16T09:03:59.226Z,40.53
2022-11-16T09:06:28.966Z,41.10
2022-11-16T09:08:57.154Z,40.08
2022-11-16T09:11:26.547Z,51.53
2022-11-16T09:13:56.628Z,49.33
2022-11-16T09:16:25.595Z,39.28
2022-11-16T09:18:53.681Z,39.63
2022-11-16T09:21:25.197Z,41.38
2022-11-16T09:23:54.891Z,39.33
2022-11-16T09:26:24.042Z,36.47
2022-11-16T09:28:56.944Z,38.85
2022-11-16T09:31:27.476Z,41.67
2022-11-16T09:33:58.283Z,35.47
2022-11-16T09:36:29.482Z,37.45
2022-11-16T09:42:01.267Z,36.58
2022-11-16T09:44:50.279Z,39.58
2022-11-16T09:47:22.129Z,39.75
2022-11-16T09:49:58.135Z,39.05
2022-11-16T09:52:35.098Z,35.75
2022-11-16T09:55:16.567Z,43.35
2022-11-16T09:57:45.452Z,41.05
2022-11-16T10:00:19.635Z,43.15
2022-11-16T10:02:53.146Z,42.80
2022-11-16T10:05:23.762Z,43.33
2022-11-16T10:08:00.256Z,47.53
2022-11-16T10:10:36.075Z,48.88
2022-11-16T10:13:16.026Z,50.15
2022-11-16T10:16:00.354Z,47.58
2022-11-16T10:18:46.219Z,38.17
2022-11-16T10:21:39.723Z,45.97
2022-11-16T10:24:34.357Z,43.70
2022-11-16T10:27:25.742Z,44.00
2022-11-16T10:30:03.460Z,44.40
2022-11-16T10:32:33.252Z,47.85
2022-11-16T10:35:09.202Z,45.60
2022-11-16T10:37:40.636Z,52.58
2022-11-16T10:40:23.288Z,49.28
2022-11-16T10:43:06.701Z,43.80
2022-11-16T10:45:40.320Z,46.25
2022-11-16T10:48:30.805Z,51.00
2022-11-16T10:50:59.028Z,48.50
2022-11-16T10:53:29.345Z,50.30
2022-11-16T10:56:12.719Z,50.00
2022-11-16T10:58:52.334Z,48.45
2022-11-16T11:01:36.462Z,59.42
2022-11-16T11:04:26.283Z,51.75
2022-11-16T11:06:56.033Z,54.58
2022-11-16T11:09:31.507Z,49.47
2022-11-16T11:12:20.775Z,46.88
2022-11-16T11:15:05.795Z,43.55
2022-11-16T11:17:36.291Z,41.53
2022-11-16T11:20:07.407Z,44.00
2022-11-16T11:22:43.022Z,49.47
2022-11-16T11:25:21.694Z,46.47
2022-11-16T11:27:52.049Z,48.05
2022-11-16T11:30:21.700Z,52.03
2022-11-16T11:32:50.268Z,48.47
2022-11-16T11:35:26.312Z,46.50
2022-11-16T11:37:57.719Z,42.42
2022-11-16T11:40:27.266Z,41.55
2022-11-16T11:43:07.235Z,55.13
2022-11-16T11:45:44.231Z,52.22
2022-11-16T11:48:26.386Z,42.60
2022-11-16T11:50:56.282Z,44.90
2022-11-16T11:53:42.063Z,52.25
2022-11-16T11:56:13.033Z,50.10
2022-11-16T11:58:43.727Z,47.83
2022-11-16T12:01:50.337Z,52.55
2022-11-16T12:05:08.485Z,48.72
2022-11-16T12:07:58.557Z,57.90
2022-11-16T12:10:32.912Z,50.67
2022-11-16T12:13:22.697Z,50.83
2022-11-16T12:16:02.811Z,51.03
2022-11-16T12:18:43.621Z,59.88
2022-11-16T12:21:14.601Z,51.72
2022-11-16T12:23:59.361Z,54.88
2022-11-16T12:26:38.394Z,49.50
2022-11-16T12:29:22.181Z,56.25
2022-11-16T12:32:03.700Z,48.72
2022-11-16T12:34:45.315Z,54.00
2022-11-16T12:37:21.686Z,49.60
2022-11-16T12:40:09.601Z,54.00
2022-11-16T12:42:47.167Z,46.25
2022-11-16T12:45:29.001Z,44.67
2022-11-16T12:48:19.440Z,49.50
2022-11-16T12:50:56.872Z,47.65
2022-11-16T12:53:50.637Z,50.22
2022-11-16T12:56:27.134Z,49.53
2022-11-16T12:59:13.349Z,49.97
2022-11-16T13:01:46.090Z,58.90
2022-11-16T13:04:19.813Z,58.20
2022-11-16T13:06:53.617Z,56.28
2022-11-16T13:09:25.417Z,77.75
2022-11-16T13:11:57.555Z,72.35
2022-11-16T13:14:31.070Z,57.05
2022-11-16T13:17:02.428Z,55.38
2022-11-16T13:19:32.464Z,52.28
2022-11-16T13:22:05.761Z,51.63
2022-11-16T13:24:51.240Z,52.75
2022-11-16T13:27:33.099Z,62.40
2022-11-16T13:30:06.793Z,58.53
2022-11-16T13:32:50.442Z,70.85
2022-11-16T13:35:21.037Z,65.90
2022-11-16T13:37:49.914Z,63.58
2022-11-16T13:40:29.638Z,91.03
2022-11-16T13:43:06.028Z,56.20
2022-11-16T13:45:37.880Z,62.67
2022-11-16T13:48:18.155Z,74.85
2022-11-16T13:50:53.075Z,69.05
2022-11-16T13:56:16.056Z,68.68
2022-11-16T13:58:48.427Z,101.32
2022-11-16T14:01:18.058Z,73.97
2022-11-16T14:03:47.334Z,86.70
2022-11-16T14:07:00.101Z,87.07
2022-11-16T14:09:45.735Z,64.43
2022-11-16T14:12:56.784Z,53.20
2022-11-16T14:15:33.679Z,47.40
2022-11-16T14:18:21.951Z,49.30
2022-11-16T14:20:58.165Z,51.75
2022-11-16T14:23:58.346Z,55.55
2022-11-16T14:26:37.921Z,65.72
2022-11-16T14:29:20.189Z,53.13
2022-11-16T14:31:52.319Z,54.45
2022-11-16T14:34:23.501Z,51.97
2022-11-16T14:36:52.232Z,52.58
2022-11-16T14:39:37.348Z,50.10
2022-11-16T14:42:08.516Z,61.08
2022-11-16T14:44:40.021Z,59.40
2022-11-16T14:47:21.801Z,63.67
2022-11-16T14:49:50.332Z,60.25
2022-11-16T14:52:20.244Z,66.10
2022-11-16T14:54:56.777Z,64.80
2022-11-16T14:57:25.415Z,69.97
2022-11-16T15:00:09.246Z,69.55
2022-11-16T15:02:37.952Z,75.70
2022-11-16T15:05:07.183Z,75.80
2022-11-16T15:07:35.215Z,72.45
2022-11-16T15:10:05.352Z,95.72
2022-11-16T15:12:44.108Z,104.22
2022-11-16T15:15:17.306Z,103.53
2022-11-16T15:17:47.266Z,126.00
2022-11-16T15:20:20.412Z,108.43
2022-11-16T15:22:52.063Z,84.30
2022-11-16T15:25:32.612Z,74.80
2022-11-16T15:28:02.561Z,63.67
2022-11-16T15:30:34.375Z,63.42
2022-11-16T15:33:04.925Z,69.25
2022-11-16T15:35:35.033Z,73.38
2022-11-16T15:38:04.897Z,67.75
2022-11-16T15:40:35.427Z,75.13
2022-11-16T15:43:07.056Z,76.38
2022-11-16T15:45:35.815Z,71.70
2022-11-16T15:48:05.002Z,79.38
2022-11-16T15:50:33.186Z,83.00
2022-11-16T15:53:01.230Z,82.68
2022-11-16T15:55:36.874Z,84.47
2022-11-16T15:58:08.581Z,79.55
2022-11-16T16:00:38.334Z,81.22
2022-11-16T16:03:17.554Z,72.75
2022-11-16T16:05:45.704Z,72.95
2022-11-16T16:08:34.880Z,78.00
2022-11-16T16:11:10.434Z,77.20
2022-11-16T16:13:40.592Z,74.72
2022-11-16T16:16:27.409Z,84.00
2022-11-16T16:18:58.223Z,104.35
2022-11-16T16:21:29.382Z,94.95
2022-11-16T16:24:00.614Z,94.35
2022-11-16T16:26:30.105Z,79.78
2022-11-16T16:28:58.150Z,82.18
2022-11-16T16:31:29.210Z,101.70
2022-11-16T16:33:59.535Z,109.93
2022-11-16T16:36:27.653Z,99.50
2022-11-16T16:38:57.021Z,106.82
2022-11-16T16:41:25.158Z,118.78
2022-11-16T16:43:54.783Z,108.32
2022-11-16T16:46:22.878Z,98.25
2022-11-16T16:48:50.948Z,98.20
2022-11-16T16:51:18.998Z,91.45
2022-11-16T16:53:46.995Z,101.75
2022-11-16T16:56:16.623Z,91.28
2022-11-16T16:58:44.674Z,94.88
2022-11-16T17:01:14.492Z,89.95
2022-11-16T17:03:42.646Z,97.13
2022-11-16T17:06:10.788Z,95.88
2022-11-16T17:08:39.399Z,92.47
2022-11-16T17:11:07.526Z,92.43
2022-11-16T17:13:35.981Z,95.38
2022-11-16T17:16:06.294Z,94.00
2022-11-16T17:18:35.742Z,92.65
2022-11-16T17:21:08.291Z,96.57
2022-11-16T17:23:37.652Z,98.43
2022-11-16T17:26:06.666Z,93.90
2022-11-16T17:28:35.406Z,94.18
2022-11-16T17:31:04.151Z,94.80
2022-11-16T17:33:36.058Z,87.47
2022-11-16T17:36:04.916Z,98.53
2022-11-16T17:38:33.249Z,88.03
2022-11-16T17:41:06.660Z,83.18
2022-11-16T17:43:35.601Z,88.10
2022-11-16T17:46:08.536Z,85.35
2022-11-16T17:48:38.993Z,82.20
2022-11-16T17:51:08.786Z,77.43
2022-11-16T17:53:37.884Z,78.18
2022-11-16T17:56:07.748Z,89.55
2022-11-16T17:58:36.098Z,78.97
2022-11-16T18:01:04.526Z,85.20
2022-11-16T18:03:33.283Z,88.68
2022-11-16T18:06:08.572Z,87.63
2022-11-16T18:11:06.820Z,85.30
2022-11-16T18:13:35.564Z,88.47
2022-11-16T18:16:05.753Z,90.13
2022-11-16T18:18:34.084Z,89.03
2022-11-16T18:21:02.554Z,87.68
2022-11-16T18:23:32.669Z,93.68
2022-11-16T18:26:01.008Z,95.70
2022-11-16T18:28:29.090Z,98.07
2022-11-16T18:31:04.178Z,95.75
2022-11-16T18:33:32.750Z,97.28
2022-11-16T18:36:01.166Z,98.78
2022-11-16T18:38:29.200Z,91.60
2022-11-16T18:41:15.422Z,92.70
2022-11-16T18:43:48.517Z,93.70
2022-11-16T18:46:16.608Z,103.65
2022-11-16T18:48:44.615Z,92.97
2022-11-16T18:51:12.769Z,91.65
2022-11-16T18:53:40.854Z,93.43
2022-11-16T18:56:11.867Z,94.38
2022-11-16T18:58:55.686Z,94.40
2022-11-16T19:01:25.809Z,103.10
2022-11-16T19:03:54.732Z,97.22
2022-11-16T19:06:23.723Z,88.90
2022-11-16T19:08:56.451Z,92.32
2022-11-16T19:11:27.981Z,89.65
2022-11-16T19:14:00.100Z,92.32
2022-11-16T19:16:28.253Z,86.80
2022-11-16T19:18:56.758Z,84.47
2022-11-16T19:21:25.225Z,89.93
2022-11-16T19:23:54.799Z,89.38
2022-11-16T19:26:26.026Z,92.10
2022-11-16T19:28:54.997Z,88.18
2022-11-16T19:31:24.758Z,97.55
2022-11-16T19:33:56.135Z,93.55
2022-11-16T19:36:24.703Z,100.90
2022-11-16T19:38:52.955Z,102.20
2022-11-16T19:41:22.606Z,105.93
2022-11-16T19:43:57.194Z,103.95
2022-11-16T19:46:25.793Z,113.32
2022-11-16T19:48:54.592Z,108.32
2022-11-16T19:51:24.374Z,109.35
2022-11-16T19:53:52.584Z,111.18
2022-11-16T19:56:22.911Z,106.97
2022-11-16T19:58:52.908Z,113.03
2022-11-16T20:01:23.152Z,112.18
2022-11-16T20:03:51.392Z,114.38
2022-11-16T20:06:21.148Z,108.32
2022-11-16T20:08:50.565Z,111.22
2022-11-16T20:11:20.853Z,113.40
2022-11-16T20:13:49.356Z,108.75
2022-11-16T20:16:20.541Z,108.28
2022-11-16T20:18:49.298Z,109.82
2022-11-16T20:21:22.410Z,107.50
2022-11-16T20:23:51.633Z,122.88
2022-11-16T20:26:20.835Z,114.20
2022-11-16T20:28:51.064Z,113.25
2022-11-16T20:31:21.939Z,123.38
2022-11-16T20:33:54.413Z,115.85
2022-11-16T20:36:23.785Z,115.65
2022-11-16T20:38:52.486Z,115.43
2022-11-16T20:41:22.449Z,105.05
2022-11-16T20:43:52.492Z,108.75
2022-11-16T20:46:23.768Z,115.53
2022-11-16T20:48:52.086Z,115.95
2022-11-16T20:51:21.413Z,97.13
2022-11-16T20:53:50.924Z,109.65
2022-11-16T20:56:20.239Z,104.45
2022-11-16T20:58:48.559Z,99.85
2022-11-16T21:01:18.752Z,110.03
2022-11-16T21:03:48.193Z,106.57
2022-11-16T21:06:16.641Z,118.47
2022-11-16T21:08:44.895Z,112.80
2022-11-16T21:11:13.493Z,104.00
2022-11-16T21:13:58.864Z,110.63
2022-11-16T21:18:56.240Z,113.32
2022-11-16T21:21:25.341Z,121.15
2022-11-16T21:23:55.006Z,113.38
2022-11-16T21:26:24.764Z,108.88
2022-11-16T21:28:52.906Z,113.88
2022-11-16T21:31:23.170Z,120.40
2022-11-16T21:33:51.213Z,118.00
2022-11-16T21:36:22.373Z,118.43
2022-11-16T21:38:50.801Z,123.72
2022-11-16T21:41:20.473Z,114.85
2022-11-16T21:43:48.821Z,113.13
2022-11-16T21:46:18.667Z,123.47
2022-11-16T21:48:48.118Z,122.88
2022-11-16T21:51:18.359Z,129.40
2022-11-16T21:53:50.657Z,140.52
2022-11-16T21:56:20.141Z,143.05
2022-11-16T21:58:49.982Z,136.48
2022-11-16T22:01:18.193Z,132.68
2022-11-16T22:03:46.596Z,143.73
2022-11-16T22:06:34.584Z,136.40
2022-11-16T22:09:04.137Z,176.20
2022-11-16T22:11:32.137Z,150.55
2022-11-16T22:14:00.282Z,150.90
2022-11-16T22:16:28.362Z,133.70
2022-11-16T22:18:56.381Z,153.40
2022-11-16T22:21:24.482Z,151.80
2022-11-16T22:23:52.537Z,150.02
2022-11-16T22:26:22.079Z,166.85
2022-11-16T22:28:50.081Z,158.35
2022-11-16T22:31:18.120Z,145.80
2022-11-16T22:33:46.115Z,161.90
2022-11-16T22:36:15.081Z,162.55
2022-11-16T22:38:43.060Z,196.68
2022-11-16T22:41:11.233Z,151.88
2022-11-16T22:43:40.715Z,181.43
2022-11-16T22:46:09.033Z,185.75
2022-11-16T22:48:38.912Z,204.60
2022-11-16T22:51:08.985Z,164.55
2022-11-16T22:53:37.267Z,165.35
2022-11-16T22:56:07.679Z,187.88
2022-11-16T22:58:36.072Z,193.20
2022-11-16T23:01:07.496Z,175.48
2022-11-16T23:03:36.004Z,195.30
2022-11-16T23:06:05.425Z,180.88
2022-11-16T23:08:34.347Z,176.35
2022-11-16T23:11:20.537Z,213.38
2022-11-16T23:14:06.375Z,172.25
2022-11-16T23:16:36.267Z,179.48
2022-11-16T23:19:24.368Z,189.48
2022-11-16T23:22:09.552Z,184.25
2022-11-16T23:24:55.047Z,168.40
2022-11-16T23:27:31.944Z,198.27
2022-11-16T23:30:01.146Z,227.77
2022-11-16T23:32:31.048Z,228.60
2022-11-16T23:34:59.263Z,222.13
2022-11-16T23:37:27.363Z,202.27
2022-11-16T23:39:55.392Z,227.55
2022-11-16T23:42:40.602Z,188.05
2022-11-16T23:45:09.029Z,197.65
2022-11-16T23:47:38.401Z,197.85
2022-11-16T23:50:06.997Z,159.90
2022-11-16T23:52:35.042Z,193.07
2022-11-16T23:55:03.046Z,185.27
2022-11-16T23:57:31.142Z,191.40
2022-11-16T23:59:59.104Z,178.85
